createdAt,value
2022-11-05T00:01:01.174Z,7.02
2022-11-05T00:02:03.969Z,5.61
2022-11-05T00:03:06.526Z,5.79
2022-11-05T00:04:08.958Z,6.93
2022-11-05T00:05:11.528Z,4.87
2022-11-05T00:06:14.031Z,7.47
2022-11-05T00:07:16.549Z,7.31
2022-11-05T00:08:18.974Z,8.73
2022-11-05T00:09:21.411Z,9.03
2022-11-05T00:10:23.777Z,7.76
2022-11-05T00:11:26.290Z,7.21
2022-11-05T00:12:28.795Z,9.86
2022-11-05T00:13:31.211Z,7.92
2022-11-05T00:14:33.635Z,8.92
2022-11-05T00:15:36.070Z,8.88
2022-11-05T00:16:38.858Z,7.47
2022-11-05T00:17:41.453Z,8.73
2022-11-05T00:18:44.101Z,9.61
2022-11-05T00:19:46.771Z,9.95
2022-11-05T00:20:49.541Z,8.04
2022-11-05T00:21:51.991Z,7.52
2022-11-05T00:22:54.523Z,7.19
2022-11-05T00:23:57.057Z,10.48
2022-11-05T00:25:01.566Z,9.31
2022-11-05T00:26:04.561Z,8.60
2022-11-05T00:27:07.584Z,7.45
2022-11-05T00:28:10.283Z,7.41
2022-11-05T00:29:19.931Z,9.50
2022-11-05T00:30:22.686Z,7.97
2022-11-05T00:31:25.515Z,7.36
2022-11-05T00:32:28.141Z,8.30
2022-11-05T00:33:30.512Z,8.71
2022-11-05T00:34:33.011Z,8.83
2022-11-05T00:35:35.891Z,7.03
2022-11-05T00:36:38.546Z,5.96
2022-11-05T00:37:45.602Z,6.42
2022-11-05T00:38:46.575Z,8.23
2022-11-05T00:39:49.204Z,7.89
2022-11-05T00:40:53.910Z,8.71
2022-11-05T00:41:56.625Z,8.04
2022-11-05T00:42:59.516Z,7.77
2022-11-05T00:44:02.260Z,8.06
2022-11-05T00:45:05.269Z,8.00
2022-11-05T00:46:07.985Z,8.74
2022-11-05T00:47:10.665Z,6.42
2022-11-05T00:48:13.900Z,9.18
2022-11-05T00:49:16.199Z,8.58
2022-11-05T00:50:18.618Z,6.66
2022-11-05T00:51:20.980Z,6.90
2022-11-05T00:52:23.415Z,7.87
2022-11-05T00:53:26.326Z,4.01
2022-11-05T00:54:28.844Z,6.19
2022-11-05T00:55:31.417Z,7.65
2022-11-05T00:56:33.844Z,9.68
2022-11-05T00:57:36.616Z,4.98
2022-11-05T00:58:39.536Z,4.94
2022-11-05T00:59:42.430Z,6.72
2022-11-05T01:00:45.560Z,4.65
2022-11-05T01:01:48.182Z,5.47
2022-11-05T01:02:51.423Z,7.30
2022-11-05T01:03:54.593Z,6.48
2022-11-05T01:04:57.389Z,7.59
2022-11-05T01:06:00.155Z,6.65
2022-11-05T01:07:02.906Z,6.70
2022-11-05T01:08:05.613Z,9.62
2022-11-05T01:09:08.635Z,5.62
2022-11-05T01:10:11.437Z,7.44
2022-11-05T01:11:14.227Z,8.20
2022-11-05T01:12:16.915Z,5.56
2022-11-05T01:13:20.106Z,5.99
2022-11-05T01:14:22.972Z,4.22
2022-11-05T01:15:25.482Z,3.76
2022-11-05T01:16:28.103Z,5.69
2022-11-05T01:17:30.653Z,5.71
2022-11-05T01:18:33.671Z,3.78
2022-11-05T01:19:36.759Z,5.08
2022-11-05T01:20:39.408Z,6.85
2022-11-05T01:21:42.474Z,6.15
2022-11-05T01:22:45.406Z,10.92
2022-11-05T01:23:47.958Z,6.52
2022-11-05T01:24:50.408Z,7.33
2022-11-05T01:25:53.080Z,6.83
2022-11-05T01:27:00.866Z,7.27
2022-11-05T01:28:03.857Z,7.51
2022-11-05T01:29:06.835Z,7.90
2022-11-05T01:30:09.800Z,6.28
2022-11-05T01:31:12.729Z,6.60
2022-11-05T01:32:15.255Z,7.25
2022-11-05T01:33:17.967Z,7.38
2022-11-05T01:34:20.622Z,6.34
2022-11-05T01:35:23.561Z,7.42
2022-11-05T01:36:25.841Z,9.23
2022-11-05T01:37:28.402Z,10.87
2022-11-05T01:38:30.905Z,7.83
2022-11-05T01:39:33.282Z,7.10
2022-11-05T01:40:35.824Z,6.85
2022-11-05T01:41:38.377Z,7.29
2022-11-05T01:42:40.763Z,7.22
2022-11-05T01:43:43.498Z,7.80
2022-11-05T01:44:46.153Z,7.52
2022-11-05T01:45:48.755Z,8.18
2022-11-05T01:46:51.238Z,7.48
2022-11-05T01:47:53.714Z,8.36
2022-11-05T01:49:01.802Z,8.62
2022-11-05T01:50:00.403Z,7.78
2022-11-05T01:51:03.021Z,8.44
2022-11-05T01:52:05.687Z,8.64
2022-11-05T01:53:08.853Z,7.02
2022-11-05T01:54:11.917Z,7.46
2022-11-05T01:55:14.631Z,8.39
2022-11-05T01:56:17.499Z,9.96
2022-11-05T01:57:19.952Z,8.68
2022-11-05T01:58:22.301Z,7.23
2022-11-05T01:59:24.763Z,8.82
2022-11-05T02:00:27.334Z,6.30
2022-11-05T02:01:30.031Z,8.54
2022-11-05T02:02:32.960Z,7.75
2022-11-05T02:03:35.936Z,6.76
2022-11-05T02:04:38.919Z,5.34
2022-11-05T02:05:41.623Z,7.40
2022-11-05T02:06:44.639Z,7.99
2022-11-05T02:07:47.323Z,7.95
2022-11-05T02:08:50.506Z,9.22
2022-11-05T02:09:53.097Z,6.96
2022-11-05T02:10:55.744Z,9.16
2022-11-05T02:11:58.782Z,7.05
2022-11-05T02:13:01.589Z,6.58
2022-11-05T02:14:04.403Z,6.97
2022-11-05T02:15:07.294Z,6.30
2022-11-05T02:16:09.888Z,7.94
2022-11-05T02:17:15.803Z,6.06
2022-11-05T02:18:18.271Z,6.99
2022-11-05T02:19:20.709Z,5.45
2022-11-05T02:20:23.346Z,6.32
2022-11-05T02:21:25.940Z,4.98
2022-11-05T02:22:28.642Z,5.42
2022-11-05T02:23:31.123Z,5.45
2022-11-05T02:24:33.527Z,5.85
2022-11-05T02:25:35.959Z,5.38
2022-11-05T02:26:38.469Z,7.08
2022-11-05T02:27:41.314Z,7.18
2022-11-05T02:28:44.048Z,6.66
2022-11-05T02:29:46.774Z,5.05
2022-11-05T02:30:49.615Z,7.12
2022-11-05T02:31:52.270Z,7.35
2022-11-05T02:32:55.048Z,6.71
2022-11-05T02:33:57.704Z,6.46
2022-11-05T02:35:00.494Z,6.18
2022-11-05T02:36:03.299Z,5.65
2022-11-05T02:37:05.892Z,6.49
2022-11-05T02:38:09.161Z,6.12
2022-11-05T02:39:11.985Z,6.50
2022-11-05T02:40:14.639Z,6.52
2022-11-05T02:41:17.350Z,7.43
2022-11-05T02:42:19.955Z,6.08
2022-11-05T02:43:28.987Z,6.05
2022-11-05T02:44:37.538Z,5.43
2022-11-05T02:45:40.329Z,6.27
2022-11-05T02:46:43.401Z,6.14
2022-11-05T02:47:46.180Z,5.82
2022-11-05T02:48:49.116Z,6.88
2022-11-05T02:49:56.139Z,3.95
2022-11-05T02:50:58.952Z,4.41
2022-11-05T02:52:01.582Z,5.71
2022-11-05T02:53:04.415Z,6.73
2022-11-05T02:54:07.541Z,6.14
2022-11-05T02:55:10.270Z,5.46
2022-11-05T02:56:14.766Z,5.97
2022-11-05T02:57:17.452Z,6.33
2022-11-05T02:58:20.270Z,4.53
2022-11-05T02:59:22.667Z,6.15
2022-11-05T03:00:25.109Z,5.97
2022-11-05T03:01:27.914Z,5.89
2022-11-05T03:02:30.501Z,7.11
2022-11-05T03:03:39.916Z,5.05
2022-11-05T03:04:42.647Z,6.85
2022-11-05T03:05:49.473Z,4.85
2022-11-05T03:06:52.261Z,5.76
2022-11-05T03:07:54.907Z,5.17
2022-11-05T03:08:57.602Z,5.70
2022-11-05T03:10:00.367Z,5.88
2022-11-05T03:11:03.242Z,5.50
2022-11-05T03:12:05.954Z,7.44
2022-11-05T03:13:08.965Z,6.45
2022-11-05T03:14:11.892Z,6.00
2022-11-05T03:15:14.837Z,6.76
2022-11-05T03:16:17.523Z,4.54
2022-11-05T03:17:19.936Z,6.86
2022-11-05T03:18:22.613Z,6.83
2022-11-05T03:19:25.100Z,6.05
2022-11-05T03:20:27.752Z,7.92
2022-11-05T03:21:30.525Z,5.60
2022-11-05T03:22:33.470Z,5.17
2022-11-05T03:23:36.059Z,4.64
2022-11-05T03:24:38.452Z,4.83
2022-11-05T03:25:41.309Z,7.03
2022-11-05T03:26:43.644Z,6.85
2022-11-05T03:27:46.024Z,5.60
2022-11-05T03:28:48.446Z,6.13
2022-11-05T03:29:50.795Z,6.28
2022-11-05T03:30:54.581Z,5.87
2022-11-05T03:31:57.061Z,6.09
2022-11-05T03:32:59.641Z,6.12
2022-11-05T03:34:02.233Z,6.44
2022-11-05T03:35:04.827Z,7.31
2022-11-05T03:36:07.182Z,6.86
2022-11-05T03:37:09.817Z,6.67
2022-11-05T03:38:12.651Z,6.77
2022-11-05T03:39:15.293Z,5.26
2022-11-05T03:40:17.993Z,6.30
2022-11-05T03:41:20.926Z,5.86
2022-11-05T03:42:23.602Z,7.07
2022-11-05T03:43:26.059Z,5.15
2022-11-05T03:44:28.544Z,5.12
2022-11-05T03:45:30.982Z,5.85
2022-11-05T03:46:35.615Z,7.11
2022-11-05T03:47:41.870Z,5.71
2022-11-05T03:48:44.706Z,5.00
2022-11-05T03:49:47.655Z,6.45
2022-11-05T03:50:50.338Z,7.28
2022-11-05T03:51:53.688Z,6.50
2022-11-05T03:52:56.321Z,6.26
2022-11-05T03:53:58.982Z,6.01
2022-11-05T03:55:01.650Z,4.94
2022-11-05T03:56:04.852Z,7.21
2022-11-05T03:57:07.337Z,7.42
2022-11-05T03:58:10.278Z,7.27
2022-11-05T03:59:12.938Z,8.05
2022-11-05T04:00:15.683Z,6.58
2022-11-05T04:01:18.638Z,5.86
2022-11-05T04:02:21.565Z,5.22
2022-11-05T04:03:24.129Z,4.84
2022-11-05T04:04:26.692Z,6.07
2022-11-05T04:05:29.112Z,7.35
2022-11-05T04:06:31.702Z,7.85
2022-11-05T04:07:34.429Z,6.28
2022-11-05T04:08:37.163Z,5.37
2022-11-05T04:09:40.157Z,5.89
2022-11-05T04:10:43.185Z,5.04
2022-11-05T04:11:45.778Z,3.98
2022-11-05T04:12:50.947Z,4.35
2022-11-05T04:13:56.159Z,5.91
2022-11-05T04:14:58.829Z,5.46
2022-11-05T04:16:01.495Z,5.46
2022-11-05T04:17:04.230Z,5.46
2022-11-05T04:18:07.131Z,5.91
2022-11-05T04:19:10.018Z,7.52
2022-11-05T04:20:12.779Z,5.72
2022-11-05T04:21:15.579Z,7.90
2022-11-05T04:22:22.575Z,5.56
2022-11-05T04:23:25.642Z,5.85
2022-11-05T04:24:28.615Z,7.88
2022-11-05T04:25:36.773Z,5.66
2022-11-05T04:26:39.580Z,4.87
2022-11-05T04:27:42.416Z,5.40
2022-11-05T04:28:45.609Z,4.38
2022-11-05T04:29:48.259Z,6.27
2022-11-05T04:30:51.011Z,7.43
2022-11-05T04:31:53.664Z,7.09
2022-11-05T04:32:56.615Z,6.68
2022-11-05T04:34:01.331Z,6.78
2022-11-05T04:35:04.079Z,6.22
2022-11-05T04:36:07.099Z,7.46
2022-11-05T04:37:09.922Z,7.55
2022-11-05T04:38:12.753Z,7.19
2022-11-05T04:39:15.373Z,6.66
2022-11-05T04:40:20.429Z,5.27
2022-11-05T04:41:23.236Z,6.29
2022-11-05T04:42:25.644Z,7.33
2022-11-05T04:43:27.982Z,7.68
2022-11-05T04:44:30.461Z,7.59
2022-11-05T04:45:33.088Z,6.78
2022-11-05T04:46:36.063Z,6.51
2022-11-05T04:47:39.022Z,5.42
2022-11-05T04:48:41.681Z,4.76
2022-11-05T04:49:44.887Z,4.98
2022-11-05T04:50:47.475Z,5.06
2022-11-05T04:51:50.198Z,8.10
2022-11-05T04:52:52.858Z,5.30
2022-11-05T04:53:55.297Z,6.45
2022-11-05T04:54:58.333Z,5.43
2022-11-05T04:56:00.731Z,7.48
2022-11-05T04:57:03.166Z,6.55
2022-11-05T04:58:05.724Z,5.05
2022-11-05T04:59:08.265Z,4.88
2022-11-05T05:00:10.723Z,5.91
2022-11-05T05:01:13.797Z,8.07
2022-11-05T05:02:16.328Z,9.89
2022-11-05T05:03:18.817Z,4.77
2022-11-05T05:04:21.778Z,5.76
2022-11-05T05:05:24.139Z,5.58
2022-11-05T05:06:26.683Z,5.75
2022-11-05T05:07:29.217Z,5.64
2022-11-05T05:08:31.953Z,4.61
2022-11-05T05:09:34.688Z,5.05
2022-11-05T05:10:37.551Z,7.28
2022-11-05T05:11:40.144Z,5.42
2022-11-05T05:12:42.908Z,5.56
2022-11-05T05:13:45.537Z,5.68
2022-11-05T05:14:48.208Z,5.38
2022-11-05T05:15:51.524Z,6.03
2022-11-05T05:16:54.299Z,4.20
2022-11-05T05:17:56.723Z,2.64
2022-11-05T05:18:59.443Z,5.15
2022-11-05T05:20:02.230Z,5.23
2022-11-05T05:21:05.108Z,4.31
2022-11-05T05:22:07.757Z,5.25
2022-11-05T05:23:10.774Z,4.67
2022-11-05T05:24:13.979Z,4.94
2022-11-05T05:25:16.661Z,5.37
2022-11-05T05:26:19.694Z,5.07
2022-11-05T05:27:22.118Z,5.31
2022-11-05T05:28:24.800Z,5.77
2022-11-05T05:29:27.532Z,5.05
2022-11-05T05:30:30.094Z,5.03
2022-11-05T05:31:32.696Z,4.17
2022-11-05T05:32:35.459Z,5.22
2022-11-05T05:33:37.937Z,4.50
2022-11-05T05:34:40.463Z,4.56
2022-11-05T05:35:42.952Z,5.88
2022-11-05T05:36:45.749Z,5.47
2022-11-05T05:37:50.922Z,5.24
2022-11-05T05:38:53.484Z,6.27
2022-11-05T05:39:55.815Z,4.66
2022-11-05T05:40:58.232Z,4.53
2022-11-05T05:42:00.578Z,5.81
2022-11-05T05:44:18.841Z,4.99
2022-11-05T05:45:22.124Z,5.60
2022-11-05T05:46:24.706Z,7.37
2022-11-05T05:47:27.341Z,6.83
2022-11-05T05:48:29.892Z,7.54
2022-11-05T05:49:32.450Z,7.64
2022-11-05T05:50:35.128Z,5.85
2022-11-05T05:51:38.660Z,6.34
2022-11-05T05:52:41.627Z,6.60
2022-11-05T05:55:00.145Z,6.10
2022-11-05T05:56:04.867Z,6.08
2022-11-05T05:57:07.676Z,5.99
2022-11-05T05:58:10.546Z,6.47
2022-11-05T05:59:14.896Z,6.25
2022-11-05T06:00:17.369Z,7.30
2022-11-05T06:01:20.477Z,4.70
2022-11-05T06:02:23.390Z,5.01
2022-11-05T06:03:29.840Z,5.34
2022-11-05T06:04:32.243Z,6.78
2022-11-05T06:05:35.216Z,7.07
2022-11-05T06:06:38.188Z,7.39
2022-11-05T06:07:41.030Z,4.43
2022-11-05T06:08:43.733Z,5.96
2022-11-05T06:09:46.609Z,6.53
2022-11-05T06:10:49.314Z,5.32
2022-11-05T06:11:52.251Z,6.39
2022-11-05T06:12:55.106Z,5.94
2022-11-05T06:13:58.352Z,4.68
2022-11-05T06:16:17.102Z,6.26
2022-11-05T06:17:20.022Z,5.97
2022-11-05T06:18:22.715Z,7.57
2022-11-05T06:19:25.726Z,5.99
2022-11-05T06:20:28.174Z,7.00
2022-11-05T06:21:30.584Z,5.70
2022-11-05T06:22:33.160Z,5.67
2022-11-05T06:23:35.900Z,4.54
2022-11-05T06:24:38.886Z,7.73
2022-11-05T06:25:41.716Z,7.22
2022-11-05T06:26:44.385Z,6.14
2022-11-05T06:27:47.326Z,6.19
2022-11-05T06:28:50.202Z,6.07
2022-11-05T06:29:53.261Z,5.36
2022-11-05T06:30:56.014Z,4.52
2022-11-05T06:31:58.744Z,6.95
2022-11-05T06:33:02.077Z,6.68
2022-11-05T06:36:28.216Z,7.52
2022-11-05T06:37:30.955Z,6.90
2022-11-05T06:38:35.287Z,7.33
2022-11-05T06:39:38.105Z,6.80
2022-11-05T06:40:41.181Z,6.22
2022-11-05T06:42:16.587Z,7.17
2022-11-05T06:42:48.801Z,6.50
2022-11-05T06:43:51.602Z,6.81
2022-11-05T06:44:56.833Z,6.29
2022-11-05T06:46:03.050Z,8.58
2022-11-05T06:47:07.923Z,7.97
2022-11-05T06:48:15.870Z,5.73
2022-11-05T06:49:18.636Z,4.76
2022-11-05T06:50:21.375Z,6.14
2022-11-05T06:52:48.664Z,5.62
2022-11-05T06:53:54.880Z,5.57
2022-11-05T06:54:57.523Z,6.39
2022-11-05T06:56:00.123Z,6.36
2022-11-05T06:57:02.934Z,6.65
2022-11-05T06:58:05.776Z,8.91
2022-11-05T06:59:10.224Z,5.46
2022-11-05T07:00:14.810Z,6.02
2022-11-05T07:02:38.760Z,6.80
2022-11-05T07:03:41.300Z,6.35
2022-11-05T07:04:43.688Z,6.32
2022-11-05T07:05:49.501Z,6.21
2022-11-05T07:06:52.010Z,6.07
2022-11-05T07:07:58.665Z,5.80
2022-11-05T07:09:05.188Z,7.36
2022-11-05T07:10:13.632Z,5.33
2022-11-05T07:11:16.097Z,5.22
2022-11-05T07:12:18.566Z,6.64
2022-11-05T07:13:21.215Z,7.54
2022-11-05T07:14:30.140Z,5.54
2022-11-05T07:16:53.256Z,6.61
2022-11-05T07:18:00.096Z,6.38
2022-11-05T07:19:03.350Z,6.45
2022-11-05T07:20:11.258Z,7.83
2022-11-05T07:21:13.933Z,6.22
2022-11-05T07:22:16.717Z,5.31
2022-11-05T07:23:23.037Z,3.59
2022-11-05T07:24:29.684Z,6.26
2022-11-05T07:25:32.349Z,8.43
2022-11-05T07:26:34.963Z,5.97
2022-11-05T07:27:55.654Z,7.05
2022-11-05T07:29:02.283Z,7.55
2022-11-05T07:30:05.287Z,6.78
2022-11-05T07:31:08.176Z,7.79
2022-11-05T07:33:36.271Z,5.92
2022-11-05T07:38:48.958Z,7.91
2022-11-05T07:42:32.464Z,7.99
2022-11-05T07:43:35.109Z,6.15
2022-11-05T07:44:46.731Z,6.70
2022-11-05T07:45:50.645Z,5.77
2022-11-05T07:46:58.730Z,7.26
2022-11-05T07:48:02.360Z,8.53
2022-11-05T07:49:05.718Z,8.28
2022-11-05T07:50:09.788Z,5.31
2022-11-05T07:51:13.299Z,5.66
2022-11-05T07:52:16.291Z,4.23
2022-11-05T07:53:19.151Z,5.30
2022-11-05T07:54:22.227Z,6.72
2022-11-05T07:55:26.354Z,7.22
2022-11-05T07:56:30.154Z,4.04
2022-11-05T07:57:33.725Z,4.92
2022-11-05T07:58:36.897Z,6.68
2022-11-05T07:59:40.598Z,4.65
2022-11-05T08:00:43.700Z,5.85
2022-11-05T08:01:47.500Z,6.92
2022-11-05T08:02:51.025Z,8.44
2022-11-05T08:03:54.042Z,6.02
2022-11-05T08:04:57.034Z,5.26
2022-11-05T08:06:00.307Z,5.72
2022-11-05T08:07:03.905Z,7.65
2022-11-05T08:08:07.259Z,7.63
2022-11-05T08:09:10.507Z,7.71
2022-11-05T08:10:14.833Z,7.06
2022-11-05T08:11:17.866Z,7.44
2022-11-05T08:12:26.862Z,7.75
2022-11-05T08:13:38.550Z,7.52
2022-11-05T08:14:42.854Z,7.11
2022-11-05T08:15:46.448Z,5.90
2022-11-05T08:16:49.832Z,7.68
2022-11-05T08:17:53.634Z,7.88
2022-11-05T08:18:56.825Z,8.76
2022-11-05T08:20:11.057Z,6.60
2022-11-05T08:21:14.747Z,7.74
2022-11-05T08:22:18.132Z,7.98
2022-11-05T08:23:23.175Z,6.44
2022-11-05T08:24:26.657Z,6.36
2022-11-05T08:25:32.297Z,6.32
2022-11-05T08:26:36.278Z,6.47
2022-11-05T08:27:39.890Z,8.04
2022-11-05T08:28:43.330Z,6.83
2022-11-05T08:29:47.333Z,7.32
2022-11-05T08:30:53.220Z,7.29
2022-11-05T08:31:57.326Z,6.81
2022-11-05T08:33:01.954Z,7.49
2022-11-05T08:34:09.110Z,7.99
2022-11-05T08:35:12.804Z,6.35
2022-11-05T08:36:19.369Z,7.11
2022-11-05T08:37:27.036Z,8.63
2022-11-05T08:38:45.512Z,8.36
2022-11-05T08:39:53.755Z,8.70
2022-11-05T08:41:03.809Z,7.22
2022-11-05T08:42:06.833Z,6.74
2022-11-05T08:43:10.745Z,7.31
2022-11-05T08:44:13.992Z,5.48
2022-11-05T08:45:23.091Z,5.59
2022-11-05T08:46:26.197Z,6.44
2022-11-05T08:47:30.215Z,6.08
2022-11-05T08:48:33.884Z,7.83
2022-11-05T08:49:42.396Z,7.98
2022-11-05T08:50:45.989Z,7.27
2022-11-05T08:51:49.468Z,9.55
2022-11-05T08:52:52.965Z,6.78
2022-11-05T08:53:58.194Z,6.26
2022-11-05T08:55:02.612Z,5.47
2022-11-05T08:56:11.253Z,8.00
2022-11-05T08:57:14.916Z,6.29
2022-11-05T08:59:38.830Z,5.81
2022-11-05T09:00:42.475Z,7.48
2022-11-05T09:01:46.261Z,7.84
2022-11-05T09:02:49.558Z,6.54
2022-11-05T09:03:52.645Z,7.05
2022-11-05T09:04:57.144Z,6.10
2022-11-05T09:06:10.819Z,5.99
2022-11-05T09:07:13.968Z,7.22
2022-11-05T09:08:22.161Z,8.02
2022-11-05T09:09:25.343Z,6.46
2022-11-05T09:10:34.976Z,6.89
2022-11-05T09:12:10.645Z,8.69
2022-11-05T09:12:49.225Z,9.25
2022-11-05T09:13:52.536Z,7.61
2022-11-05T09:14:56.012Z,10.05
2022-11-05T09:16:04.811Z,8.14
2022-11-05T09:17:08.093Z,7.93
2022-11-05T09:18:10.946Z,9.43
2022-11-05T09:19:19.983Z,6.82
2022-11-05T09:20:27.073Z,8.16
2022-11-05T09:21:30.548Z,8.06
2022-11-05T09:22:43.414Z,9.21
2022-11-05T09:23:46.329Z,7.86
2022-11-05T09:24:59.359Z,9.34
2022-11-05T09:26:03.044Z,8.52
2022-11-05T09:27:06.345Z,6.47
2022-11-05T09:28:16.461Z,7.32
2022-11-05T09:29:17.136Z,8.70
2022-11-05T09:30:27.142Z,6.58
2022-11-05T09:31:37.075Z,7.80
2022-11-05T09:32:40.765Z,6.60
2022-11-05T09:33:47.683Z,7.21
2022-11-05T09:34:51.336Z,6.69
2022-11-05T09:35:55.535Z,6.83
2022-11-05T09:36:58.619Z,7.72
2022-11-05T09:38:01.807Z,8.67
2022-11-05T09:39:05.658Z,9.66
2022-11-05T09:40:09.491Z,9.96
2022-11-05T09:41:20.046Z,9.36
2022-11-05T09:42:23.242Z,8.37
2022-11-05T09:43:31.499Z,9.45
2022-11-05T09:44:31.446Z,9.25
2022-11-05T09:45:35.422Z,7.85
2022-11-05T09:46:40.562Z,8.39
2022-11-05T09:47:49.876Z,7.81
2022-11-05T09:48:52.782Z,7.67
2022-11-05T09:49:59.833Z,7.51
2022-11-05T09:51:03.535Z,9.81
2022-11-05T09:52:06.393Z,8.24
2022-11-05T09:53:10.857Z,11.17
2022-11-05T09:54:15.750Z,8.75
2022-11-05T09:55:19.221Z,8.54
2022-11-05T09:56:23.648Z,6.28
2022-11-05T09:57:26.922Z,8.61
2022-11-05T09:58:32.666Z,7.34
2022-11-05T09:59:39.050Z,7.08
2022-11-05T10:00:42.589Z,6.26
2022-11-05T10:01:46.750Z,5.11
2022-11-05T10:02:50.832Z,6.59
2022-11-05T10:03:53.813Z,8.76
2022-11-05T10:05:09.192Z,11.67
2022-11-05T10:06:08.192Z,7.39
2022-11-05T10:07:12.146Z,9.36
2022-11-05T10:08:15.334Z,7.84
2022-11-05T10:09:19.945Z,7.14
2022-11-05T10:10:23.743Z,7.79
2022-11-05T10:11:27.234Z,7.37
2022-11-05T10:12:31.953Z,8.01
2022-11-05T10:13:41.016Z,6.28
2022-11-05T10:14:48.969Z,7.63
2022-11-05T10:16:03.092Z,7.48
2022-11-05T10:17:14.596Z,7.89
2022-11-05T10:18:18.782Z,9.31
2022-11-05T10:19:22.335Z,8.66
2022-11-05T10:20:29.041Z,10.64
2022-11-05T10:22:04.254Z,6.19
2022-11-05T10:22:37.474Z,6.94
2022-11-05T10:23:49.877Z,8.12
2022-11-05T10:25:00.695Z,7.55
2022-11-05T10:26:17.374Z,7.91
2022-11-05T10:27:20.390Z,8.61
2022-11-05T10:28:24.235Z,6.98
2022-11-05T10:29:27.794Z,7.28
2022-11-05T10:30:31.179Z,7.11
2022-11-05T10:31:35.672Z,8.47
2022-11-05T10:32:39.186Z,8.05
2022-11-05T10:33:46.141Z,7.75
2022-11-05T10:34:49.596Z,8.88
2022-11-05T10:35:53.844Z,9.98
2022-11-05T10:36:56.613Z,8.06
2022-11-05T10:38:11.140Z,7.38
2022-11-05T10:39:16.705Z,6.97
2022-11-05T10:40:20.016Z,6.33
2022-11-05T10:41:22.944Z,8.74
2022-11-05T10:42:26.329Z,8.38
2022-11-05T10:43:31.020Z,8.27
2022-11-05T10:44:34.538Z,6.59
2022-11-05T10:45:46.471Z,6.04
2022-11-05T10:48:10.215Z,8.52
2022-11-05T10:49:15.435Z,7.00
2022-11-05T10:50:29.258Z,7.92
2022-11-05T10:51:35.721Z,8.12
2022-11-05T10:52:39.634Z,9.85
2022-11-05T10:53:42.525Z,8.08
2022-11-05T10:54:49.665Z,7.62
2022-11-05T10:57:14.982Z,6.07
2022-11-05T10:58:19.284Z,7.54
2022-11-05T11:00:44.204Z,7.06
2022-11-05T11:03:13.944Z,7.93
2022-11-05T11:04:17.777Z,8.63
2022-11-05T11:05:21.275Z,10.51
2022-11-05T11:06:24.650Z,11.09
2022-11-05T11:07:29.193Z,9.04
2022-11-05T11:08:36.461Z,10.75
2022-11-05T11:09:39.444Z,9.64
2022-11-05T11:10:52.092Z,8.71
2022-11-05T11:11:58.597Z,8.98
2022-11-05T11:13:03.226Z,9.18
2022-11-05T11:14:15.043Z,9.73
2022-11-05T11:15:22.885Z,11.25
2022-11-05T11:16:26.491Z,10.85
2022-11-05T11:17:32.870Z,9.91
2022-11-05T11:18:39.896Z,10.61
2022-11-05T11:19:40.432Z,9.48
2022-11-05T11:20:48.725Z,9.97
2022-11-05T11:21:56.515Z,9.01
2022-11-05T11:23:00.002Z,11.09
2022-11-05T11:24:10.421Z,9.70
2022-11-05T11:25:13.033Z,9.12
2022-11-05T11:27:37.728Z,8.92
2022-11-05T11:28:47.919Z,9.54
2022-11-05T11:29:52.492Z,11.55
2022-11-05T11:30:56.184Z,8.60
2022-11-05T11:31:59.768Z,10.34
2022-11-05T11:33:06.650Z,10.52
2022-11-05T11:34:12.383Z,10.59
2022-11-05T11:35:15.799Z,11.87
2022-11-05T11:36:19.990Z,11.59
2022-11-05T11:37:23.564Z,11.09
2022-11-05T11:38:27.973Z,12.08
2022-11-05T11:39:31.059Z,8.58
2022-11-05T11:40:34.679Z,7.75
2022-11-05T11:41:37.716Z,11.54
2022-11-05T11:42:41.844Z,10.58
2022-11-05T11:43:45.534Z,9.86
2022-11-05T11:44:50.657Z,9.79
2022-11-05T11:46:06.087Z,9.95
2022-11-05T11:47:07.365Z,7.88
2022-11-05T11:48:10.642Z,6.22
2022-11-05T11:49:17.823Z,7.52
2022-11-05T11:50:24.165Z,7.77
2022-11-05T11:51:27.231Z,9.87
2022-11-05T11:52:30.646Z,6.31
2022-11-05T11:53:34.744Z,9.27
2022-11-05T11:54:37.729Z,9.95
2022-11-05T11:55:40.684Z,8.20
2022-11-05T11:56:44.386Z,5.75
2022-11-05T11:57:47.792Z,7.90
2022-11-05T11:58:51.776Z,7.93
2022-11-05T12:00:08.271Z,9.47
2022-11-05T12:00:59.784Z,7.41
2022-11-05T12:02:03.339Z,7.77
2022-11-05T12:03:06.757Z,6.99
2022-11-05T12:04:10.456Z,7.52
2022-11-05T12:05:13.896Z,8.84
2022-11-05T12:07:38.641Z,7.34
2022-11-05T12:08:45.756Z,6.45
2022-11-05T12:09:48.378Z,7.53
2022-11-05T12:10:52.991Z,9.17
2022-11-05T12:11:56.378Z,7.14
2022-11-05T12:13:00.059Z,7.54
2022-11-05T12:14:09.069Z,6.34
2022-11-05T12:15:13.087Z,8.08
2022-11-05T12:16:16.477Z,8.11
2022-11-05T12:17:29.623Z,9.62
2022-11-05T12:18:33.298Z,9.88
2022-11-05T12:19:40.694Z,9.73
2022-11-05T12:20:47.231Z,9.17
2022-11-05T12:21:52.863Z,9.73
2022-11-05T12:22:55.846Z,8.54
2022-11-05T12:23:59.536Z,10.63
2022-11-05T12:25:02.516Z,9.86
2022-11-05T12:26:06.945Z,9.55
2022-11-05T12:27:09.901Z,9.53
2022-11-05T12:28:12.883Z,10.07
2022-11-05T12:29:19.602Z,10.22
2022-11-05T12:30:20.377Z,8.41
2022-11-05T12:31:23.768Z,8.69
2022-11-05T12:32:27.609Z,8.64
2022-11-05T12:33:32.366Z,7.66
2022-11-05T12:34:36.985Z,8.84
2022-11-05T12:35:45.737Z,8.49
2022-11-05T12:36:44.894Z,8.16
2022-11-05T12:37:47.969Z,7.35
2022-11-05T12:40:13.085Z,7.49
2022-11-05T12:41:16.862Z,7.28
2022-11-05T12:42:20.360Z,8.99
2022-11-05T12:43:23.637Z,10.02
2022-11-05T12:44:27.017Z,8.87
2022-11-05T12:45:30.407Z,8.71
2022-11-05T12:46:33.806Z,10.30
2022-11-05T12:47:37.398Z,8.45
2022-11-05T12:48:41.304Z,8.29
2022-11-05T12:49:44.676Z,10.13
2022-11-05T12:50:48.059Z,9.22
2022-11-05T12:51:51.244Z,9.44
2022-11-05T12:52:54.325Z,7.68
2022-11-05T12:53:57.917Z,6.48
2022-11-05T12:55:03.882Z,10.56
2022-11-05T12:56:08.616Z,6.86
2022-11-05T12:57:11.454Z,9.11
2022-11-05T12:58:16.684Z,7.95
2022-11-05T12:59:19.773Z,7.85
2022-11-05T13:00:37.509Z,7.59
2022-11-05T13:01:40.800Z,9.06
2022-11-05T13:02:43.972Z,10.36
2022-11-05T13:05:24.795Z,8.53
2022-11-05T13:06:43.875Z,7.30
2022-11-05T13:07:47.471Z,8.94
2022-11-05T13:08:58.452Z,8.96
2022-11-05T13:10:13.507Z,10.49
2022-11-05T13:11:17.018Z,11.80
2022-11-05T13:12:23.812Z,9.25
2022-11-05T13:13:30.206Z,8.23
2022-11-05T13:14:36.522Z,7.37
2022-11-05T13:15:39.666Z,6.89
2022-11-05T13:16:54.001Z,8.32
2022-11-05T13:17:57.375Z,9.69
2022-11-05T13:20:21.557Z,8.75
2022-11-05T13:21:25.664Z,9.94
2022-11-05T13:22:42.050Z,9.89
2022-11-05T13:23:44.676Z,9.06
2022-11-05T13:24:48.524Z,10.06
2022-11-05T13:25:52.311Z,9.18
2022-11-05T13:26:57.762Z,9.41
2022-11-05T13:28:01.350Z,7.77
2022-11-05T13:29:19.766Z,7.95
2022-11-05T13:34:37.728Z,8.89
2022-11-05T13:38:51.333Z,13.56
2022-11-05T14:06:14.418Z,8.42
2022-11-05T14:07:17.094Z,11.21
2022-11-05T14:08:20.530Z,9.42
2022-11-05T14:09:26.473Z,10.65
2022-11-05T14:13:38.233Z,7.81
2022-11-05T14:14:41.306Z,8.29
2022-11-05T14:15:44.703Z,12.10
2022-11-05T14:16:47.367Z,13.03
2022-11-05T14:17:50.449Z,8.75
2022-11-05T14:18:54.097Z,8.32
2022-11-05T14:19:57.416Z,10.34
2022-11-05T14:21:00.395Z,8.92
2022-11-05T14:22:03.573Z,11.57
2022-11-05T14:23:09.778Z,7.48
2022-11-05T14:24:11.895Z,8.36
2022-11-05T14:25:14.983Z,9.36
2022-11-05T14:26:18.246Z,8.98
2022-11-05T14:27:21.027Z,8.46
2022-11-05T14:28:24.313Z,10.00
2022-11-05T14:29:27.402Z,8.69
2022-11-05T14:30:30.682Z,9.26
2022-11-05T14:32:02.483Z,9.36
2022-11-05T14:32:38.332Z,11.09
2022-11-05T14:33:41.445Z,9.60
2022-11-05T14:34:44.557Z,10.59
2022-11-05T14:35:48.118Z,12.16
2022-11-05T14:36:51.604Z,10.36
2022-11-05T14:37:55.602Z,7.02
2022-11-05T14:39:04.134Z,9.14
2022-11-05T14:40:03.711Z,9.88
2022-11-05T14:41:06.993Z,10.69
2022-11-05T14:42:09.867Z,9.50
2022-11-05T14:43:13.876Z,10.31
2022-11-05T14:44:16.950Z,13.16
2022-11-05T14:45:20.547Z,11.72
2022-11-05T14:46:23.539Z,10.91
2022-11-05T14:47:26.636Z,11.84
2022-11-05T14:48:29.686Z,10.77
2022-11-05T14:49:32.549Z,11.34
2022-11-05T14:50:35.842Z,11.55
2022-11-05T14:51:38.826Z,11.76
2022-11-05T14:52:41.818Z,12.73
2022-11-05T14:53:45.115Z,14.26
2022-11-05T14:54:47.887Z,16.13
2022-11-05T14:55:51.551Z,16.38
2022-11-05T14:56:56.581Z,15.14
2022-11-05T14:57:58.728Z,18.63
2022-11-05T14:59:01.722Z,17.55
2022-11-05T15:00:04.466Z,16.49
2022-11-05T15:01:07.837Z,16.87
2022-11-05T15:02:11.519Z,20.27
2022-11-05T15:03:18.416Z,22.03
2022-11-05T15:04:21.594Z,20.42
2022-11-05T15:05:24.578Z,20.94
2022-11-05T15:06:27.776Z,23.38
2022-11-05T15:07:30.643Z,25.32
2022-11-05T15:08:33.623Z,22.20
2022-11-05T15:09:36.799Z,29.60
2022-11-05T15:10:40.391Z,34.48
2022-11-05T15:11:43.477Z,30.36
2022-11-05T15:12:46.440Z,28.39
2022-11-05T15:13:49.437Z,27.28
2022-11-05T15:14:52.700Z,29.68
2022-11-05T15:15:55.890Z,24.79
2022-11-05T15:16:59.272Z,27.08
2022-11-05T15:18:02.456Z,24.85